createdAt,value
2023-03-03T00:01:13.210Z,2.94
2023-03-03T00:03:40.336Z,2.63
2023-03-03T00:06:10.816Z,2.82
2023-03-03T00:08:37.498Z,3.05
2023-03-03T00:11:06.189Z,2.96
2023-03-03T00:13:33.829Z,2.51
2023-03-03T00:16:14.702Z,2.87
2023-03-03T00:18:44.702Z,2.12
2023-03-03T00:21:29.813Z,2.02
2023-03-03T00:24:05.262Z,2.67
2023-03-03T00:26:36.599Z,2.96
2023-03-03T00:29:24.644Z,3.17
2023-03-03T00:31:51.122Z,3.05
2023-03-03T00:34:17.546Z,2.74
2023-03-03T00:36:44.640Z,2.72
2023-03-03T00:39:18.793Z,2.53
2023-03-03T00:41:45.600Z,2.43
2023-03-03T00:44:25.751Z,2.55
2023-03-03T00:46:54.081Z,2.62
2023-03-03T00:49:26.127Z,2.11
2023-03-03T00:51:53.816Z,2.14
2023-03-03T00:54:20.440Z,2.52
2023-03-03T00:56:46.891Z,2.37
2023-03-03T00:59:13.356Z,1.90
2023-03-03T01:01:39.801Z,2.22
2023-03-03T01:04:06.283Z,1.92
2023-03-03T01:06:32.844Z,2.06
2023-03-03T01:08:59.435Z,2.25
2023-03-03T01:11:28.611Z,1.57
2023-03-03T01:13:55.168Z,1.76
2023-03-03T01:16:21.807Z,1.97
2023-03-03T01:18:48.308Z,1.72
2023-03-03T01:21:14.828Z,1.62
2023-03-03T01:23:41.435Z,1.85
2023-03-03T01:26:08.005Z,2.13
2023-03-03T01:28:34.786Z,2.16
2023-03-03T01:31:06.249Z,1.95
2023-03-03T01:33:34.026Z,1.86
2023-03-03T01:36:00.733Z,2.12
2023-03-03T01:38:27.617Z,2.14
2023-03-03T01:40:58.838Z,2.04
2023-03-03T01:43:31.038Z,1.83
2023-03-03T01:45:57.546Z,1.74
2023-03-03T01:48:36.930Z,1.73
2023-03-03T01:51:07.745Z,2.00
2023-03-03T01:53:42.784Z,1.91
2023-03-03T01:56:10.159Z,1.96
2023-03-03T01:58:47.335Z,1.78
2023-03-03T02:01:22.549Z,1.64
2023-03-03T02:03:49.578Z,1.62
2023-03-03T02:06:18.729Z,1.77
2023-03-03T02:09:04.240Z,2.07
2023-03-03T02:11:33.226Z,1.69
2023-03-03T02:13:59.718Z,1.73
2023-03-03T02:16:26.525Z,1.68
2023-03-03T02:18:53.011Z,1.77
2023-03-03T02:21:22.004Z,2.00
2023-03-03T02:24:23.866Z,1.80
2023-03-03T02:26:50.418Z,1.35
2023-03-03T02:29:17.142Z,1.52
2023-03-03T02:31:44.080Z,1.26
2023-03-03T02:34:10.886Z,1.17
2023-03-03T02:36:39.226Z,1.47
2023-03-03T02:39:11.798Z,1.44
2023-03-03T02:41:56.873Z,1.65
2023-03-03T02:44:25.480Z,1.47
2023-03-03T02:46:53.261Z,1.02
2023-03-03T02:49:24.579Z,0.71
2023-03-03T02:51:51.528Z,0.93
2023-03-03T02:54:19.709Z,0.79
2023-03-03T02:56:46.560Z,1.18
2023-03-03T02:59:13.087Z,1.17
2023-03-03T03:01:39.771Z,1.36
2023-03-03T03:04:09.597Z,1.52
2023-03-03T03:06:36.984Z,1.22
2023-03-03T03:09:05.089Z,1.32
2023-03-03T03:11:31.784Z,1.31
2023-03-03T03:13:58.226Z,1.64
2023-03-03T03:16:24.735Z,1.60
2023-03-03T03:18:51.296Z,1.28
2023-03-03T03:21:17.968Z,1.26
2023-03-03T03:23:44.682Z,1.32
2023-03-03T03:26:11.666Z,1.50
2023-03-03T03:28:38.435Z,1.31
2023-03-03T03:31:06.035Z,1.07
2023-03-03T03:33:32.607Z,1.23
2023-03-03T03:36:00.008Z,1.21
2023-03-03T03:38:27.278Z,1.21
2023-03-03T03:40:54.464Z,1.20
2023-03-03T03:43:21.004Z,1.29
2023-03-03T03:45:47.588Z,1.08
2023-03-03T03:48:14.405Z,1.09
2023-03-03T03:50:40.864Z,1.61
2023-03-03T03:53:07.694Z,1.49
2023-03-03T03:55:34.289Z,1.29
2023-03-03T03:58:00.771Z,1.28
2023-03-03T04:00:27.284Z,1.21
2023-03-03T04:02:53.838Z,1.03
2023-03-03T04:05:21.216Z,1.19
2023-03-03T04:07:47.726Z,0.99
2023-03-03T04:10:14.222Z,1.43
2023-03-03T04:12:40.764Z,1.27
2023-03-03T04:15:10.908Z,1.15
2023-03-03T04:17:37.675Z,1.15
2023-03-03T04:20:04.984Z,1.14
2023-03-03T04:22:36.029Z,1.12
2023-03-03T04:25:06.206Z,1.36
2023-03-03T04:27:33.389Z,1.40
2023-03-03T04:30:00.121Z,1.26
2023-03-03T04:32:26.649Z,1.21
2023-03-03T04:35:05.748Z,1.15
2023-03-03T04:37:34.085Z,1.21
2023-03-03T04:40:00.751Z,1.42
2023-03-03T04:42:28.292Z,1.29
2023-03-03T04:44:54.891Z,1.12
2023-03-03T04:47:21.399Z,0.99
2023-03-03T04:49:47.837Z,0.81
2023-03-03T04:52:14.430Z,0.72
2023-03-03T04:54:40.871Z,0.87
2023-03-03T04:57:09.512Z,1.08
2023-03-03T04:59:36.384Z,0.75
2023-03-03T05:02:04.694Z,0.17
2023-03-03T05:04:31.336Z,0.43
2023-03-03T05:06:57.944Z,0.58
2023-03-03T05:09:24.479Z,0.47
2023-03-03T05:11:51.699Z,0.62
2023-03-03T05:14:18.556Z,0.60
2023-03-03T05:16:45.223Z,0.50
2023-03-03T05:19:12.429Z,0.76
2023-03-03T05:21:42.479Z,0.09
2023-03-03T05:24:10.639Z,0.34
2023-03-03T05:26:37.247Z,0.77
2023-03-03T05:29:04.166Z,1.12
2023-03-03T05:31:30.669Z,0.53
2023-03-03T05:33:57.235Z,1.09
2023-03-03T05:36:23.810Z,1.41
2023-03-03T05:38:50.455Z,1.43
2023-03-03T05:41:16.964Z,1.58
2023-03-03T05:43:43.746Z,1.52
2023-03-03T05:46:10.485Z,1.68
2023-03-03T05:48:36.978Z,1.84
2023-03-03T05:51:03.591Z,1.93
2023-03-03T05:53:30.207Z,1.51
2023-03-03T05:55:56.710Z,1.74
2023-03-03T05:58:23.380Z,2.02
2023-03-03T06:00:49.833Z,1.77
2023-03-03T06:03:17.122Z,1.86
2023-03-03T06:05:43.796Z,2.04
2023-03-03T06:08:10.294Z,2.04
2023-03-03T06:10:36.759Z,2.04
2023-03-03T06:13:03.296Z,2.17
2023-03-03T06:15:29.807Z,1.86
2023-03-03T06:17:56.317Z,2.16
2023-03-03T06:20:22.805Z,2.12
2023-03-03T06:22:49.310Z,2.25
2023-03-03T06:25:15.904Z,2.12
2023-03-03T06:27:42.443Z,2.27
2023-03-03T06:30:09.532Z,2.18
2023-03-03T06:32:36.061Z,2.49
2023-03-03T06:35:02.539Z,2.38
2023-03-03T06:37:29.436Z,2.30
2023-03-03T06:39:55.875Z,2.40
2023-03-03T06:42:24.935Z,2.12
2023-03-03T06:44:51.477Z,2.56
2023-03-03T06:47:18.042Z,2.41
2023-03-03T06:49:44.481Z,2.54
2023-03-03T06:52:31.195Z,2.21
2023-03-03T06:54:59.395Z,2.52
2023-03-03T06:57:31.214Z,2.33
2023-03-03T07:00:12.325Z,2.62
2023-03-03T07:02:38.787Z,2.70
2023-03-03T07:05:07.718Z,2.76
2023-03-03T07:07:34.168Z,2.93
2023-03-03T07:10:00.608Z,2.86
2023-03-03T07:12:29.840Z,3.14
2023-03-03T07:15:24.264Z,2.85
2023-03-03T07:17:55.616Z,2.99
2023-03-03T07:20:35.134Z,2.83
2023-03-03T07:23:28.966Z,3.13
2023-03-03T07:25:55.597Z,3.07
2023-03-03T07:28:22.047Z,3.19
2023-03-03T07:30:48.928Z,3.26
2023-03-03T07:33:36.214Z,2.96
2023-03-03T07:36:04.042Z,3.26
2023-03-03T07:38:47.092Z,3.17
2023-03-03T07:41:25.688Z,3.40
2023-03-03T07:44:12.638Z,3.41
2023-03-03T07:46:44.584Z,3.33
2023-03-03T07:49:24.273Z,3.56
2023-03-03T07:51:58.343Z,3.40
2023-03-03T07:54:32.258Z,3.51
2023-03-03T07:57:12.274Z,3.58
2023-03-03T07:59:48.811Z,3.52
2023-03-03T08:02:30.835Z,3.68
2023-03-03T08:04:57.415Z,3.62
2023-03-03T08:07:23.958Z,3.41
2023-03-03T08:10:00.535Z,3.61
2023-03-03T08:12:35.454Z,3.70
2023-03-03T08:15:23.313Z,3.83
2023-03-03T08:17:51.067Z,3.60
2023-03-03T08:20:44.612Z,3.54
2023-03-03T08:23:12.723Z,3.99
2023-03-03T08:25:39.747Z,3.78
2023-03-03T08:28:06.425Z,3.69
2023-03-03T08:30:32.880Z,4.20
2023-03-03T08:32:59.415Z,4.05
2023-03-03T08:35:27.600Z,3.89
2023-03-03T08:37:54.137Z,4.15
2023-03-03T08:40:20.649Z,4.42
2023-03-03T08:42:47.598Z,4.42
2023-03-03T08:45:14.223Z,4.34
2023-03-03T08:47:40.690Z,4.17
2023-03-03T08:50:07.391Z,4.00
2023-03-03T08:52:34.402Z,4.40
2023-03-03T08:55:08.835Z,4.48
2023-03-03T08:57:42.395Z,4.34
2023-03-03T09:00:13.630Z,4.56
2023-03-03T09:02:40.614Z,4.45
2023-03-03T09:05:07.993Z,4.84
2023-03-03T09:07:35.163Z,4.88
2023-03-03T09:10:01.907Z,5.00
2023-03-03T09:12:36.564Z,5.22
2023-03-03T09:15:17.273Z,5.12
2023-03-03T09:17:44.477Z,5.29
2023-03-03T09:20:19.978Z,5.31
2023-03-03T09:22:46.431Z,5.23
2023-03-03T09:25:23.352Z,5.01
2023-03-03T09:27:53.415Z,5.27
2023-03-03T09:30:25.973Z,5.33
2023-03-03T09:32:53.173Z,5.73
2023-03-03T09:35:36.556Z,5.87
2023-03-03T09:38:14.376Z,5.05
2023-03-03T09:41:00.713Z,5.55
2023-03-03T09:43:37.594Z,5.73
2023-03-03T09:46:07.150Z,5.54
2023-03-03T09:48:39.604Z,5.36
2023-03-03T09:51:27.817Z,5.58
2023-03-03T09:54:33.906Z,5.63
2023-03-03T09:57:41.803Z,5.39
2023-03-03T10:00:26.631Z,5.49
2023-03-03T10:03:01.715Z,5.35
2023-03-03T10:06:13.394Z,5.38
2023-03-03T10:08:46.291Z,5.20
2023-03-03T10:11:45.374Z,4.88
2023-03-03T10:14:38.425Z,5.19
2023-03-03T10:17:20.889Z,5.07
2023-03-03T10:20:05.579Z,5.31
2023-03-03T10:22:48.804Z,5.79
2023-03-03T10:25:42.310Z,5.22
2023-03-03T10:28:43.549Z,5.33
2023-03-03T10:31:20.797Z,5.95
2023-03-03T10:34:13.470Z,5.59
2023-03-03T10:36:58.157Z,5.66
2023-03-03T10:39:49.713Z,5.74
2023-03-03T10:42:35.099Z,6.55
2023-03-03T10:45:36.042Z,6.62
2023-03-03T10:48:41.370Z,6.41
2023-03-03T10:51:07.877Z,6.25
2023-03-03T10:53:41.457Z,6.08
2023-03-03T10:56:26.197Z,6.26
2023-03-03T10:59:13.567Z,6.64
2023-03-03T11:02:01.168Z,7.11
2023-03-03T11:04:50.818Z,6.43
2023-03-03T11:07:17.281Z,6.37
2023-03-03T11:09:43.735Z,6.25
2023-03-03T11:12:30.495Z,6.59
2023-03-03T11:15:29.262Z,6.78
2023-03-03T11:18:02.390Z,6.87
2023-03-03T11:20:28.924Z,6.79
2023-03-03T11:23:00.086Z,6.90
2023-03-03T11:25:40.593Z,6.58
2023-03-03T11:28:54.955Z,6.46
2023-03-03T11:31:32.269Z,6.69
2023-03-03T11:34:07.688Z,7.07
2023-03-03T11:36:35.346Z,7.09
2023-03-03T11:39:13.764Z,7.51
2023-03-03T11:41:54.483Z,7.51
2023-03-03T11:44:30.039Z,7.36
2023-03-03T11:46:58.791Z,7.68
2023-03-03T11:49:37.626Z,8.12
2023-03-03T11:52:16.289Z,7.89
2023-03-03T11:55:00.031Z,7.73
2023-03-03T11:57:36.213Z,7.83
2023-03-03T12:00:27.611Z,7.98
2023-03-03T12:03:12.830Z,7.87
2023-03-03T12:05:46.820Z,8.20
2023-03-03T12:08:54.187Z,8.30
2023-03-03T12:11:44.482Z,8.33
2023-03-03T12:14:33.106Z,8.52
2023-03-03T12:17:30.036Z,8.22
2023-03-03T12:20:15.155Z,8.25
2023-03-03T12:23:06.488Z,8.55
2023-03-03T12:25:38.523Z,7.98
2023-03-03T12:28:26.100Z,8.27
2023-03-03T12:31:35.526Z,7.73
2023-03-03T12:34:33.094Z,7.99
2023-03-03T12:37:13.797Z,8.28
2023-03-03T12:40:17.766Z,7.96
2023-03-03T12:42:44.410Z,8.56
2023-03-03T12:45:24.274Z,8.84
2023-03-03T12:47:54.740Z,8.08
2023-03-03T12:50:31.427Z,8.76
2023-03-03T12:53:09.876Z,8.45
2023-03-03T12:55:53.895Z,9.48
2023-03-03T12:58:42.199Z,8.45
2023-03-03T13:01:28.469Z,8.78
2023-03-03T13:04:10.570Z,8.38
2023-03-03T13:06:47.103Z,7.95
2023-03-03T13:09:22.652Z,9.01
2023-03-03T13:11:55.138Z,9.22
2023-03-03T13:14:46.970Z,8.58
2023-03-03T13:17:25.578Z,8.36
2023-03-03T13:20:03.782Z,8.97
2023-03-03T13:23:11.142Z,8.87
2023-03-03T13:25:44.454Z,8.26
2023-03-03T13:28:41.447Z,8.04
2023-03-03T13:31:10.969Z,9.03
2023-03-03T13:33:37.990Z,8.25
2023-03-03T13:36:09.546Z,8.14
2023-03-03T13:38:48.163Z,8.86
2023-03-03T13:41:32.351Z,9.17
2023-03-03T13:44:25.557Z,8.80
2023-03-03T13:47:12.559Z,9.09
2023-03-03T13:49:47.620Z,9.46
2023-03-03T13:52:27.310Z,8.87
2023-03-03T13:54:57.785Z,8.31
2023-03-03T13:57:42.206Z,8.91
2023-03-03T14:00:37.510Z,8.66
2023-03-03T14:03:15.477Z,8.42
2023-03-03T14:05:45.804Z,8.93
2023-03-03T14:08:27.783Z,8.55
2023-03-03T14:11:12.610Z,8.11
2023-03-03T14:13:57.468Z,7.95
2023-03-03T14:16:42.476Z,8.08
2023-03-03T14:19:15.011Z,8.79
2023-03-03T14:21:49.484Z,8.04
2023-03-03T14:24:21.104Z,8.85
2023-03-03T14:26:59.200Z,8.38
2023-03-03T14:29:28.821Z,7.98
2023-03-03T14:31:57.284Z,8.63
2023-03-03T14:34:23.774Z,8.66
2023-03-03T14:36:57.842Z,8.42
2023-03-03T14:39:38.896Z,9.16
2023-03-03T14:42:30.677Z,8.19
2023-03-03T14:44:59.283Z,8.25
2023-03-03T14:47:27.632Z,8.25
2023-03-03T14:49:55.820Z,7.79
2023-03-03T14:52:30.586Z,7.65
2023-03-03T14:55:00.391Z,8.52
2023-03-03T14:57:37.641Z,7.51
2023-03-03T15:00:13.790Z,7.51
2023-03-03T15:02:43.690Z,7.63
2023-03-03T15:05:17.879Z,7.77
2023-03-03T15:07:45.160Z,8.55
2023-03-03T15:10:13.472Z,8.27
2023-03-03T15:12:41.805Z,8.16
2023-03-03T15:15:19.038Z,8.14
2023-03-03T15:18:02.851Z,8.16
2023-03-03T15:21:05.227Z,7.48
2023-03-03T15:23:59.260Z,7.42
2023-03-03T15:26:44.027Z,7.43
2023-03-03T15:29:13.314Z,7.47
2023-03-03T15:32:04.294Z,7.45
2023-03-03T15:34:34.026Z,7.17
2023-03-03T15:37:45.066Z,7.91
2023-03-03T15:40:14.326Z,7.37
2023-03-03T15:42:56.496Z,7.84
2023-03-03T15:45:34.536Z,7.95
2023-03-03T15:48:34.434Z,7.90
2023-03-03T15:51:12.857Z,7.40
2023-03-03T15:53:48.572Z,7.08
2023-03-03T15:56:38.149Z,7.56
2023-03-03T15:59:34.406Z,7.39
2023-03-03T16:02:36.766Z,7.28
2023-03-03T16:05:15.227Z,7.47
2023-03-03T16:08:04.878Z,7.28
2023-03-03T16:11:10.539Z,7.10
2023-03-03T16:13:52.289Z,7.45
2023-03-03T16:17:13.210Z,7.21
2023-03-03T16:20:09.618Z,7.30
2023-03-03T16:23:13.179Z,7.68
2023-03-03T16:25:58.281Z,7.53
2023-03-03T16:28:24.670Z,7.62
2023-03-03T16:31:05.678Z,7.21
2023-03-03T16:33:49.450Z,7.43
2023-03-03T16:36:40.823Z,7.50
2023-03-03T16:39:16.142Z,7.63
2023-03-03T16:41:56.051Z,7.67
2023-03-03T16:44:47.620Z,7.48
2023-03-03T16:47:39.379Z,7.09
2023-03-03T16:50:27.581Z,7.56
2023-03-03T16:53:12.441Z,7.55
2023-03-03T16:56:00.568Z,7.50
2023-03-03T16:59:05.865Z,7.29
2023-03-03T17:01:42.429Z,7.96
2023-03-03T17:04:15.500Z,7.46
2023-03-03T17:06:53.655Z,7.43
2023-03-03T17:09:42.508Z,7.17
2023-03-03T17:12:23.704Z,7.02
2023-03-03T17:15:13.747Z,7.32
2023-03-03T17:17:58.414Z,7.20
2023-03-03T17:20:43.271Z,6.97
2023-03-03T17:23:40.541Z,6.96
2023-03-03T17:26:29.031Z,7.18
2023-03-03T17:29:20.042Z,6.71
2023-03-03T17:31:55.480Z,6.98
2023-03-03T17:34:40.616Z,6.61
2023-03-03T17:37:23.870Z,6.66
2023-03-03T17:40:13.210Z,6.16
2023-03-03T17:42:54.908Z,6.59
2023-03-03T17:45:22.138Z,6.60
2023-03-03T17:47:57.764Z,6.68
2023-03-03T17:50:42.447Z,6.89
2023-03-03T17:53:27.158Z,6.95
2023-03-03T17:56:03.003Z,6.14
2023-03-03T17:58:33.117Z,6.72
2023-03-03T18:01:02.248Z,6.66
2023-03-03T18:03:47.513Z,6.91
2023-03-03T18:06:23.915Z,6.44
2023-03-03T18:09:25.374Z,6.66
2023-03-03T18:12:03.860Z,6.93
2023-03-03T18:14:48.698Z,6.60
2023-03-03T18:17:46.461Z,6.60
2023-03-03T18:20:48.411Z,6.74
2023-03-03T18:23:28.783Z,6.48
2023-03-03T18:26:03.034Z,6.69
2023-03-03T18:28:51.458Z,6.62
2023-03-03T18:31:25.028Z,6.48
2023-03-03T18:34:05.306Z,6.43
2023-03-03T18:36:32.266Z,6.17
2023-03-03T18:39:01.086Z,6.47
2023-03-03T18:41:29.552Z,6.11
2023-03-03T18:44:04.681Z,6.58
2023-03-03T18:46:31.243Z,6.25
2023-03-03T18:49:04.665Z,6.28
2023-03-03T18:51:34.236Z,6.71
2023-03-03T18:54:26.327Z,6.05
2023-03-03T18:56:52.740Z,6.40
2023-03-03T18:59:40.071Z,6.09
2023-03-03T19:02:12.519Z,6.57
2023-03-03T19:04:44.696Z,6.53
2023-03-03T19:07:27.608Z,6.70
2023-03-03T19:09:57.637Z,6.47
2023-03-03T19:12:46.627Z,6.43
2023-03-03T19:15:31.604Z,6.23
2023-03-03T19:17:58.891Z,6.13
2023-03-03T19:20:26.973Z,6.21
2023-03-03T19:23:03.370Z,6.11
2023-03-03T19:25:31.895Z,5.76
2023-03-03T19:28:17.479Z,6.19
2023-03-03T19:31:04.864Z,6.07
2023-03-03T19:34:03.395Z,6.07
2023-03-03T19:36:44.960Z,6.18
2023-03-03T19:39:23.737Z,5.90
2023-03-03T19:41:50.148Z,6.19
2023-03-03T19:44:35.302Z,6.61
2023-03-03T19:47:04.971Z,5.88
2023-03-03T19:50:00.737Z,6.25
2023-03-03T19:52:52.168Z,6.15
2023-03-03T19:55:28.226Z,6.02
2023-03-03T19:58:02.588Z,6.20
2023-03-03T20:00:41.078Z,5.70
2023-03-03T20:03:25.330Z,5.69
2023-03-03T20:06:13.458Z,5.80
2023-03-03T20:08:46.467Z,6.07
2023-03-03T20:11:37.835Z,5.66
2023-03-03T20:14:19.558Z,5.50
2023-03-03T20:16:48.324Z,5.63
2023-03-03T20:19:17.733Z,5.61
2023-03-03T20:22:09.175Z,5.43
2023-03-03T20:24:58.560Z,5.72
2023-03-03T20:27:30.583Z,5.58
2023-03-03T20:30:21.709Z,5.60
2023-03-03T20:33:13.036Z,5.43
2023-03-03T20:36:07.778Z,5.64
2023-03-03T20:38:39.166Z,5.55
2023-03-03T20:41:05.688Z,5.38
2023-03-03T20:44:07.585Z,5.30
2023-03-03T20:46:42.125Z,5.44
2023-03-03T20:49:27.304Z,5.68
2023-03-03T20:51:53.746Z,5.64
2023-03-03T20:54:41.395Z,5.90
2023-03-03T20:57:33.761Z,5.67
2023-03-03T21:00:32.767Z,5.17
2023-03-03T21:03:30.702Z,5.77
2023-03-03T21:05:59.517Z,5.53
2023-03-03T21:08:48.731Z,5.10
2023-03-03T21:11:18.503Z,5.12
2023-03-03T21:13:47.617Z,5.34
2023-03-03T21:16:30.895Z,5.55
2023-03-03T21:19:03.724Z,5.54
2023-03-03T21:21:33.742Z,5.57
2023-03-03T21:24:00.309Z,5.67
2023-03-03T21:26:54.012Z,5.44
2023-03-03T21:29:33.900Z,5.91
2023-03-03T21:32:08.581Z,5.42
2023-03-03T21:34:37.734Z,6.23
2023-03-03T21:37:08.719Z,5.74
2023-03-03T21:39:44.334Z,5.45
2023-03-03T21:42:15.536Z,6.12
2023-03-03T21:44:49.538Z,5.97
2023-03-03T21:47:22.039Z,6.08
2023-03-03T21:49:50.489Z,5.96
2023-03-03T21:52:19.090Z,5.85
2023-03-03T21:54:46.499Z,6.57
2023-03-03T21:57:13.431Z,6.26
2023-03-03T21:59:40.258Z,6.72
2023-03-03T22:02:07.808Z,6.48
2023-03-03T22:04:35.105Z,5.94
2023-03-03T22:07:01.808Z,6.15
2023-03-03T22:09:28.261Z,6.39
2023-03-03T22:11:54.732Z,6.31
2023-03-03T22:14:21.214Z,6.07
2023-03-03T22:16:47.747Z,6.40
2023-03-03T22:19:14.266Z,6.48
2023-03-03T22:21:40.860Z,6.40
2023-03-03T22:24:07.847Z,6.63
2023-03-03T22:26:34.491Z,6.84
2023-03-03T22:29:01.006Z,6.82
2023-03-03T22:31:27.778Z,6.47
2023-03-03T22:33:54.279Z,6.82
2023-03-03T22:36:20.723Z,6.40
2023-03-03T22:38:47.559Z,6.67
2023-03-03T22:41:14.640Z,6.68
2023-03-03T22:43:42.024Z,6.58
2023-03-03T22:46:08.936Z,6.60
2023-03-03T22:48:35.947Z,6.56
2023-03-03T22:51:02.504Z,6.65
2023-03-03T22:53:28.988Z,6.44
2023-03-03T22:55:55.487Z,6.76
2023-03-03T22:58:25.378Z,6.82
2023-03-03T23:00:53.935Z,7.15
2023-03-03T23:03:21.027Z,7.04
2023-03-03T23:05:50.223Z,6.57
2023-03-03T23:08:18.727Z,6.99
2023-03-03T23:10:45.346Z,6.98
2023-03-03T23:13:13.250Z,7.32
2023-03-03T23:15:40.421Z,6.89
2023-03-03T23:18:07.070Z,6.88
2023-03-03T23:20:34.124Z,6.99
2023-03-03T23:23:00.784Z,6.67
2023-03-03T23:25:28.865Z,7.05
2023-03-03T23:27:56.132Z,6.80
2023-03-03T23:30:22.885Z,7.03
2023-03-03T23:32:49.554Z,7.12
2023-03-03T23:35:16.654Z,7.03
2023-03-03T23:37:43.321Z,7.21
2023-03-03T23:40:10.738Z,6.94
2023-03-03T23:42:37.217Z,7.00
2023-03-03T23:45:04.188Z,6.83
2023-03-03T23:47:30.670Z,7.28
2023-03-03T23:49:57.102Z,7.03
2023-03-03T23:52:23.695Z,6.89
2023-03-03T23:54:50.154Z,7.53
2023-03-03T23:57:16.624Z,7.53
2023-03-03T23:59:43.080Z,7.26
